sensor_id;sensor_type;location;lat;lon;timestamp;P1;durP1;ratioP1;P2;durP2;ratioP2
69532;SDS011;56729;52.036;5.332;2022-11-04T00:00:00;2.90;;;1.50;;
69532;SDS011;56729;52.036;5.332;2022-11-04T00:01:05;1.75;;;1.02;;
69532;SDS011;56729;52.036;5.332;2022-11-04T00:02:08;1.95;;;1.60;;
69532;SDS011;56729;52.036;5.332;2022-11-04T00:03:10;1.50;;;1.00;;
69532;SDS011;56729;52.036;5.332;2022-11-04T00:04:13;2.75;;;1.45;;
69532;SDS011;56729;52.036;5.332;2022-11-04T00:05:16;3.40;;;1.55;;
69532;SDS011;56729;52.036;5.332;2022-11-04T00:06:18;4.63;;;1.23;;
69532;SDS011;56729;52.036;5.332;2022-11-04T00:07:20;4.93;;;1.52;;
69532;SDS011;56729;52.036;5.332;2022-11-04T00:08:41;2.60;;;0.90;;
69532;SDS011;56729;52.036;5.332;2022-11-04T00:09:43;1.67;;;0.77;;
69532;SDS011;56729;52.036;5.332;2022-11-04T00:10:46;5.22;;;1.40;;
69532;SDS011;56729;52.036;5.332;2022-11-04T00:12:09;2.20;;;1.02;;
69532;SDS011;56729;52.036;5.332;2022-11-04T00:13:29;3.00;;;1.13;;
69532;SDS011;56729;52.036;5.332;2022-11-04T00:14:31;25.92;;;1.60;;
69532;SDS011;56729;52.036;5.332;2022-11-04T00:15:36;5.20;;;1.52;;
69532;SDS011;56729;52.036;5.332;2022-11-04T00:16:56;3.33;;;1.15;;
69532;SDS011;56729;52.036;5.332;2022-11-04T00:18:17;3.42;;;1.13;;
69532;SDS011;56729;52.036;5.332;2022-11-04T00:19:19;1.98;;;1.08;;
69532;SDS011;56729;52.036;5.332;2022-11-04T00:20:21;1.97;;;1.00;;
69532;SDS011;56729;52.036;5.332;2022-11-04T00:21:42;2.40;;;1.20;;
69532;SDS011;56729;52.036;5.332;2022-11-04T00:23:02;2.25;;;1.45;;
69532;SDS011;56729;52.036;5.332;2022-11-04T00:24:22;4.90;;;1.67;;
69532;SDS011;56729;52.036;5.332;2022-11-04T00:25:42;2.10;;;1.02;;
69532;SDS011;56729;52.036;5.332;2022-11-04T00:27:02;1.90;;;1.30;;
69532;SDS011;56729;52.036;5.332;2022-11-04T00:28:23;4.88;;;1.40;;
69532;SDS011;56729;52.036;5.332;2022-11-04T00:29:43;1.48;;;1.08;;
69532;SDS011;56729;52.036;5.332;2022-11-04T00:30:45;2.55;;;1.30;;
69532;SDS011;56729;52.036;5.332;2022-11-04T00:31:46;2.83;;;1.25;;
69532;SDS011;56729;52.036;5.332;2022-11-04T00:33:23;3.23;;;0.93;;
69532;SDS011;56729;52.036;5.332;2022-11-04T00:34:25;2.22;;;1.42;;
69532;SDS011;56729;52.036;5.332;2022-11-04T00:35:27;4.30;;;1.50;;
69532;SDS011;56729;52.036;5.332;2022-11-04T00:36:29;2.25;;;1.40;;
69532;SDS011;56729;52.036;5.332;2022-11-04T00:37:31;1.67;;;0.82;;
69532;SDS011;56729;52.036;5.332;2022-11-04T00:38:35;5.15;;;1.27;;
69532;SDS011;56729;52.036;5.332;2022-11-04T00:39:37;2.13;;;1.13;;
69532;SDS011;56729;52.036;5.332;2022-11-04T00:40:40;6.03;;;1.77;;
69532;SDS011;56729;52.036;5.332;2022-11-04T00:41:42;1.95;;;0.93;;
69532;SDS011;56729;52.036;5.332;2022-11-04T00:42:44;2.33;;;1.27;;
69532;SDS011;56729;52.036;5.332;2022-11-04T00:43:46;2.00;;;1.20;;
69532;SDS011;56729;52.036;5.332;2022-11-04T00:44:48;4.88;;;1.63;;
69532;SDS011;56729;52.036;5.332;2022-11-04T00:45:50;2.28;;;0.80;;
69532;SDS011;56729;52.036;5.332;2022-11-04T00:46:52;3.05;;;1.65;;
69532;SDS011;56729;52.036;5.332;2022-11-04T00:47:54;2.95;;;1.20;;
69532;SDS011;56729;52.036;5.332;2022-11-04T00:48:56;21.85;;;2.13;;
69532;SDS011;56729;52.036;5.332;2022-11-04T00:49:59;3.42;;;1.73;;
69532;SDS011;56729;52.036;5.332;2022-11-04T00:51:00;2.03;;;1.23;;
69532;SDS011;56729;52.036;5.332;2022-11-04T00:52:02;3.85;;;1.77;;
69532;SDS011;56729;52.036;5.332;2022-11-04T00:53:04;9.20;;;1.90;;
69532;SDS011;56729;52.036;5.332;2022-11-04T00:54:06;3.20;;;0.90;;
69532;SDS011;56729;52.036;5.332;2022-11-04T00:55:08;2.88;;;1.60;;
69532;SDS011;56729;52.036;5.332;2022-11-04T00:56:11;2.75;;;1.20;;
69532;SDS011;56729;52.036;5.332;2022-11-04T00:57:13;3.20;;;1.40;;
69532;SDS011;56729;52.036;5.332;2022-11-04T00:58:15;2.35;;;1.92;;
69532;SDS011;56729;52.036;5.332;2022-11-04T00:59:17;1.33;;;0.93;;
69532;SDS011;56729;52.036;5.332;2022-11-04T01:00:19;2.47;;;1.00;;
69532;SDS011;56729;52.036;5.332;2022-11-04T01:01:21;3.05;;;1.38;;
69532;SDS011;56729;52.036;5.332;2022-11-04T01:02:23;1.55;;;1.17;;
69532;SDS011;56729;52.036;5.332;2022-11-04T01:03:25;2.92;;;1.65;;
69532;SDS011;56729;52.036;5.332;2022-11-04T01:04:27;2.10;;;1.00;;
69532;SDS011;56729;52.036;5.332;2022-11-04T01:05:29;2.55;;;1.15;;
69532;SDS011;56729;52.036;5.332;2022-11-04T01:06:31;1.67;;;1.10;;
69532;SDS011;56729;52.036;5.332;2022-11-04T01:07:32;5.22;;;0.70;;
69532;SDS011;56729;52.036;5.332;2022-11-04T01:08:39;2.35;;;1.10;;
69532;SDS011;56729;52.036;5.332;2022-11-04T01:09:41;5.05;;;3.08;;
69532;SDS011;56729;52.036;5.332;2022-11-04T01:10:43;1.60;;;0.90;;
69532;SDS011;56729;52.036;5.332;2022-11-04T01:11:45;1.48;;;1.00;;
69532;SDS011;56729;52.036;5.332;2022-11-04T01:12:47;2.13;;;0.80;;
69532;SDS011;56729;52.036;5.332;2022-11-04T01:13:51;1.20;;;0.80;;
69532;SDS011;56729;52.036;5.332;2022-11-04T01:14:54;2.70;;;1.00;;
69532;SDS011;56729;52.036;5.332;2022-11-04T01:15:59;1.65;;;0.98;;
69532;SDS011;56729;52.036;5.332;2022-11-04T01:17:02;1.50;;;1.17;;
69532;SDS011;56729;52.036;5.332;2022-11-04T01:18:04;2.08;;;1.33;;
69532;SDS011;56729;52.036;5.332;2022-11-04T01:19:06;2.00;;;1.10;;
69532;SDS011;56729;52.036;5.332;2022-11-04T01:20:10;1.13;;;0.75;;
69532;SDS011;56729;52.036;5.332;2022-11-04T01:21:14;1.40;;;0.80;;
69532;SDS011;56729;52.036;5.332;2022-11-04T01:22:17;1.33;;;0.95;;
69532;SDS011;56729;52.036;5.332;2022-11-04T01:23:18;2.95;;;1.10;;
69532;SDS011;56729;52.036;5.332;2022-11-04T01:24:20;5.70;;;2.60;;
69532;SDS011;56729;52.036;5.332;2022-11-04T01:25:22;1.33;;;0.93;;
69532;SDS011;56729;52.036;5.332;2022-11-04T01:26:25;1.15;;;0.88;;
69532;SDS011;56729;52.036;5.332;2022-11-04T01:27:27;1.42;;;0.68;;
69532;SDS011;56729;52.036;5.332;2022-11-04T01:28:29;1.20;;;0.73;;
69532;SDS011;56729;52.036;5.332;2022-11-04T01:29:31;1.45;;;0.80;;
69532;SDS011;56729;52.036;5.332;2022-11-04T01:30:33;2.17;;;0.80;;
69532;SDS011;56729;52.036;5.332;2022-11-04T01:31:34;0.93;;;0.60;;
69532;SDS011;56729;52.036;5.332;2022-11-04T01:32:36;1.33;;;0.80;;
69532;SDS011;56729;52.036;5.332;2022-11-04T01:33:38;2.28;;;1.00;;
69532;SDS011;56729;52.036;5.332;2022-11-04T01:34:40;2.03;;;1.23;;
69532;SDS011;56729;52.036;5.332;2022-11-04T01:35:44;1.60;;;0.80;;
69532;SDS011;56729;52.036;5.332;2022-11-04T01:36:45;1.70;;;1.25;;
69532;SDS011;56729;52.036;5.332;2022-11-04T01:37:47;1.40;;;0.60;;
69532;SDS011;56729;52.036;5.332;2022-11-04T01:38:49;2.30;;;0.90;;
69532;SDS011;56729;52.036;5.332;2022-11-04T01:39:51;1.45;;;0.60;;
69532;SDS011;56729;52.036;5.332;2022-11-04T01:40:53;2.28;;;1.63;;
69532;SDS011;56729;52.036;5.332;2022-11-04T01:41:55;1.50;;;0.80;;
69532;SDS011;56729;52.036;5.332;2022-11-04T01:42:57;0.95;;;0.70;;
69532;SDS011;56729;52.036;5.332;2022-11-04T01:44:00;2.15;;;1.25;;
69532;SDS011;56729;52.036;5.332;2022-11-04T01:45:04;1.50;;;1.08;;
69532;SDS011;56729;52.036;5.332;2022-11-04T01:46:16;1.43;;;0.83;;
69532;SDS011;56729;52.036;5.332;2022-11-04T01:47:40;1.50;;;1.13;;
69532;SDS011;56729;52.036;5.332;2022-11-04T01:49:44;4.60;;;1.33;;
69532;SDS011;56729;52.036;5.332;2022-11-04T01:50:31;2.08;;;1.25;;
69532;SDS011;56729;52.036;5.332;2022-11-04T01:51:35;2.90;;;0.93;;
69532;SDS011;56729;52.036;5.332;2022-11-04T01:52:48;2.05;;;1.77;;
69532;SDS011;56729;52.036;5.332;2022-11-04T01:53:57;4.57;;;1.00;;
69532;SDS011;56729;52.036;5.332;2022-11-04T01:55:00;1.70;;;1.20;;
69532;SDS011;56729;52.036;5.332;2022-11-04T01:56:07;1.90;;;1.02;;
69532;SDS011;56729;52.036;5.332;2022-11-04T01:57:17;1.30;;;1.00;;
69532;SDS011;56729;52.036;5.332;2022-11-04T01:58:25;4.20;;;1.17;;
69532;SDS011;56729;52.036;5.332;2022-11-04T01:59:33;1.45;;;1.10;;
69532;SDS011;56729;52.036;5.332;2022-11-04T02:00:37;1.52;;;0.90;;
69532;SDS011;56729;52.036;5.332;2022-11-04T02:01:40;4.80;;;1.38;;
69532;SDS011;56729;52.036;5.332;2022-11-04T02:03:28;1.63;;;0.77;;
69532;SDS011;56729;52.036;5.332;2022-11-04T02:04:10;3.85;;;1.25;;
69532;SDS011;56729;52.036;5.332;2022-11-04T02:05:26;0.98;;;0.57;;
69532;SDS011;56729;52.036;5.332;2022-11-04T02:06:29;3.25;;;1.20;;
69532;SDS011;56729;52.036;5.332;2022-11-04T02:07:31;1.63;;;0.95;;
69532;SDS011;56729;52.036;5.332;2022-11-04T02:08:34;2.25;;;1.00;;
69532;SDS011;56729;52.036;5.332;2022-11-04T02:09:37;5.57;;;1.10;;
69532;SDS011;56729;52.036;5.332;2022-11-04T02:10:41;7.35;;;1.23;;
69532;SDS011;56729;52.036;5.332;2022-11-04T02:11:51;1.58;;;0.90;;
69532;SDS011;56729;52.036;5.332;2022-11-04T02:13:11;3.33;;;1.35;;
69532;SDS011;56729;52.036;5.332;2022-11-04T02:14:13;1.63;;;1.30;;
69532;SDS011;56729;52.036;5.332;2022-11-04T02:15:30;1.52;;;0.98;;
69532;SDS011;56729;52.036;5.332;2022-11-04T02:16:54;1.05;;;0.70;;
69532;SDS011;56729;52.036;5.332;2022-11-04T02:18:29;1.15;;;0.70;;
69532;SDS011;56729;52.036;5.332;2022-11-04T02:21:07;2.25;;;1.42;;
69532;SDS011;56729;52.036;5.332;2022-11-04T02:25:02;1.75;;;1.15;;
69532;SDS011;56729;52.036;5.332;2022-11-04T02:27:08;4.90;;;1.52;;
69532;SDS011;56729;52.036;5.332;2022-11-04T02:30:08;2.00;;;1.30;;
69532;SDS011;56729;52.036;5.332;2022-11-04T02:33:51;1.50;;;1.15;;
69532;SDS011;56729;52.036;5.332;2022-11-04T02:39:27;3.30;;;0.80;;
69532;SDS011;56729;52.036;5.332;2022-11-04T02:40:49;5.35;;;1.63;;
69532;SDS011;56729;52.036;5.332;2022-11-04T02:42:26;1.10;;;0.70;;
69532;SDS011;56729;52.036;5.332;2022-11-04T02:43:40;1.77;;;0.88;;
69532;SDS011;56729;52.036;5.332;2022-11-04T02:44:50;2.15;;;1.25;;
69532;SDS011;56729;52.036;5.332;2022-11-04T02:46:05;1.20;;;0.90;;
69532;SDS011;56729;52.036;5.332;2022-11-04T02:47:15;2.97;;;0.80;;
69532;SDS011;56729;52.036;5.332;2022-11-04T02:48:41;1.37;;;0.90;;
69532;SDS011;56729;52.036;5.332;2022-11-04T02:52:16;1.40;;;1.02;;
69532;SDS011;56729;52.036;5.332;2022-11-04T02:53:36;1.63;;;1.13;;
69532;SDS011;56729;52.036;5.332;2022-11-04T02:54:47;2.08;;;1.27;;
69532;SDS011;56729;52.036;5.332;2022-11-04T02:55:55;2.78;;;0.98;;
69532;SDS011;56729;52.036;5.332;2022-11-04T02:56:59;1.60;;;0.93;;
69532;SDS011;56729;52.036;5.332;2022-11-04T02:58:04;1.58;;;1.00;;
69532;SDS011;56729;52.036;5.332;2022-11-04T02:59:11;1.70;;;1.13;;
69532;SDS011;56729;52.036;5.332;2022-11-04T03:00:18;1.50;;;1.20;;
69532;SDS011;56729;52.036;5.332;2022-11-04T03:01:22;3.95;;;0.88;;
69532;SDS011;56729;52.036;5.332;2022-11-04T03:02:32;1.60;;;1.02;;
69532;SDS011;56729;52.036;5.332;2022-11-04T03:03:38;3.70;;;1.02;;
69532;SDS011;56729;52.036;5.332;2022-11-04T03:04:45;1.52;;;1.00;;
69532;SDS011;56729;52.036;5.332;2022-11-04T03:05:51;6.93;;;1.58;;
69532;SDS011;56729;52.036;5.332;2022-11-04T03:06:55;2.40;;;1.52;;
69532;SDS011;56729;52.036;5.332;2022-11-04T03:08:03;3.00;;;1.15;;
69532;SDS011;56729;52.036;5.332;2022-11-04T03:09:10;1.85;;;1.17;;
69532;SDS011;56729;52.036;5.332;2022-11-04T03:10:15;2.50;;;1.50;;
69532;SDS011;56729;52.036;5.332;2022-11-04T03:11:24;2.40;;;1.05;;
69532;SDS011;56729;52.036;5.332;2022-11-04T03:12:29;1.80;;;1.20;;
69532;SDS011;56729;52.036;5.332;2022-11-04T03:13:38;3.85;;;1.10;;
69532;SDS011;56729;52.036;5.332;2022-11-04T03:14:48;2.85;;;1.20;;
69532;SDS011;56729;52.036;5.332;2022-11-04T03:15:56;1.90;;;1.13;;
69532;SDS011;56729;52.036;5.332;2022-11-04T03:17:02;1.65;;;1.00;;
69532;SDS011;56729;52.036;5.332;2022-11-04T03:18:23;2.25;;;1.35;;
69532;SDS011;56729;52.036;5.332;2022-11-04T03:20:45;5.75;;;1.30;;
69532;SDS011;56729;52.036;5.332;2022-11-04T03:21:58;1.73;;;0.98;;
69532;SDS011;56729;52.036;5.332;2022-11-04T03:23:15;1.80;;;1.33;;
69532;SDS011;56729;52.036;5.332;2022-11-04T03:24:17;1.85;;;1.15;;
69532;SDS011;56729;52.036;5.332;2022-11-04T03:25:19;2.45;;;1.55;;
69532;SDS011;56729;52.036;5.332;2022-11-04T03:26:27;2.40;;;1.23;;
69532;SDS011;56729;52.036;5.332;2022-11-04T03:29:14;2.45;;;1.40;;
69532;SDS011;56729;52.036;5.332;2022-11-04T03:30:30;5.60;;;1.33;;
69532;SDS011;56729;52.036;5.332;2022-11-04T03:31:48;2.40;;;1.70;;
69532;SDS011;56729;52.036;5.332;2022-11-04T03:33:04;3.30;;;1.20;;
69532;SDS011;56729;52.036;5.332;2022-11-04T03:34:08;2.13;;;1.35;;
69532;SDS011;56729;52.036;5.332;2022-11-04T03:35:10;1.83;;;1.35;;
69532;SDS011;56729;52.036;5.332;2022-11-04T03:36:13;2.17;;;1.48;;
69532;SDS011;56729;52.036;5.332;2022-11-04T03:37:16;3.05;;;1.15;;
69532;SDS011;56729;52.036;5.332;2022-11-04T03:38:19;5.85;;;2.25;;
69532;SDS011;56729;52.036;5.332;2022-11-04T03:39:22;2.90;;;1.52;;
69532;SDS011;56729;52.036;5.332;2022-11-04T03:40:24;16.00;;;1.63;;
69532;SDS011;56729;52.036;5.332;2022-11-04T03:42:39;3.55;;;1.25;;
69532;SDS011;56729;52.036;5.332;2022-11-04T03:43:45;1.92;;;1.25;;
69532;SDS011;56729;52.036;5.332;2022-11-04T03:44:50;2.10;;;1.20;;
69532;SDS011;56729;52.036;5.332;2022-11-04T03:45:53;1.85;;;1.23;;
69532;SDS011;56729;52.036;5.332;2022-11-04T03:46:55;2.13;;;0.98;;
69532;SDS011;56729;52.036;5.332;2022-11-04T03:47:58;2.28;;;1.30;;
69532;SDS011;56729;52.036;5.332;2022-11-04T03:49:01;1.73;;;1.10;;
69532;SDS011;56729;52.036;5.332;2022-11-04T03:51:15;2.63;;;1.40;;
69532;SDS011;56729;52.036;5.332;2022-11-04T03:52:16;3.22;;;1.40;;
69532;SDS011;56729;52.036;5.332;2022-11-04T03:53:20;2.00;;;1.30;;
69532;SDS011;56729;52.036;5.332;2022-11-04T03:54:24;2.15;;;1.42;;
69532;SDS011;56729;52.036;5.332;2022-11-04T03:56:49;3.20;;;1.50;;
69532;SDS011;56729;52.036;5.332;2022-11-04T03:58:07;2.20;;;1.05;;
69532;SDS011;56729;52.036;5.332;2022-11-04T03:59:18;3.85;;;1.55;;
69532;SDS011;56729;52.036;5.332;2022-11-04T04:00:25;2.60;;;1.50;;
69532;SDS011;56729;52.036;5.332;2022-11-04T04:01:43;1.70;;;1.10;;
69532;SDS011;56729;52.036;5.332;2022-11-04T04:04:16;5.07;;;1.77;;
69532;SDS011;56729;52.036;5.332;2022-11-04T04:05:22;2.40;;;1.42;;
69532;SDS011;56729;52.036;5.332;2022-11-04T04:06:33;2.38;;;1.30;;
69532;SDS011;56729;52.036;5.332;2022-11-04T04:07:37;2.58;;;1.45;;
69532;SDS011;56729;52.036;5.332;2022-11-04T04:08:47;6.03;;;1.70;;
69532;SDS011;56729;52.036;5.332;2022-11-04T04:09:58;5.00;;;1.98;;
69532;SDS011;56729;52.036;5.332;2022-11-04T04:11:53;4.60;;;2.03;;
69532;SDS011;56729;52.036;5.332;2022-11-04T04:13:17;5.03;;;2.45;;
69532;SDS011;56729;52.036;5.332;2022-11-04T04:14:34;5.47;;;2.53;;
69532;SDS011;56729;52.036;5.332;2022-11-04T04:15:57;6.22;;;2.70;;
69532;SDS011;56729;52.036;5.332;2022-11-04T04:18:23;5.68;;;2.05;;
69532;SDS011;56729;52.036;5.332;2022-11-04T04:19:31;2.75;;;1.70;;
69532;SDS011;56729;52.036;5.332;2022-11-04T04:20:34;3.97;;;2.30;;
69532;SDS011;56729;52.036;5.332;2022-11-04T04:22:22;5.55;;;1.67;;
69532;SDS011;56729;52.036;5.332;2022-11-04T04:23:08;3.70;;;2.40;;
69532;SDS011;56729;52.036;5.332;2022-11-04T04:24:34;3.33;;;2.75;;
69532;SDS011;56729;52.036;5.332;2022-11-04T04:25:57;3.45;;;2.05;;
69532;SDS011;56729;52.036;5.332;2022-11-04T04:27:24;3.85;;;3.05;;
69532;SDS011;56729;52.036;5.332;2022-11-04T04:28:32;7.03;;;3.00;;
69532;SDS011;56729;52.036;5.332;2022-11-04T04:29:36;3.35;;;2.15;;
69532;SDS011;56729;52.036;5.332;2022-11-04T04:30:39;3.38;;;2.10;;
69532;SDS011;56729;52.036;5.332;2022-11-04T04:31:42;4.65;;;3.60;;
69532;SDS011;56729;52.036;5.332;2022-11-04T04:32:51;3.30;;;2.67;;
69532;SDS011;56729;52.036;5.332;2022-11-04T04:33:56;3.50;;;2.10;;
69532;SDS011;56729;52.036;5.332;2022-11-04T04:34:58;2.55;;;1.77;;
69532;SDS011;56729;52.036;5.332;2022-11-04T04:36:19;4.63;;;2.08;;
69532;SDS011;56729;52.036;5.332;2022-11-04T04:37:22;3.50;;;2.33;;
69532;SDS011;56729;52.036;5.332;2022-11-04T04:38:26;4.47;;;2.28;;
69532;SDS011;56729;52.036;5.332;2022-11-04T04:39:52;3.55;;;2.40;;
69532;SDS011;56729;52.036;5.332;2022-11-04T04:41:22;4.70;;;2.80;;
69532;SDS011;56729;52.036;5.332;2022-11-04T04:43:04;4.03;;;2.50;;
69532;SDS011;56729;52.036;5.332;2022-11-04T04:44:25;5.82;;;2.85;;
69532;SDS011;56729;52.036;5.332;2022-11-04T04:45:51;3.40;;;2.83;;
69532;SDS011;56729;52.036;5.332;2022-11-04T04:46:56;3.67;;;2.35;;
69532;SDS011;56729;52.036;5.332;2022-11-04T04:48:00;3.80;;;2.30;;
69532;SDS011;56729;52.036;5.332;2022-11-04T04:49:06;3.75;;;2.15;;
69532;SDS011;56729;52.036;5.332;2022-11-04T04:50:10;4.47;;;2.60;;
69532;SDS011;56729;52.036;5.332;2022-11-04T04:51:16;3.63;;;3.03;;
69532;SDS011;56729;52.036;5.332;2022-11-04T04:52:18;7.20;;;2.80;;
69532;SDS011;56729;52.036;5.332;2022-11-04T04:53:22;6.35;;;1.92;;
69532;SDS011;56729;52.036;5.332;2022-11-04T04:54:24;4.78;;;2.42;;
69532;SDS011;56729;52.036;5.332;2022-11-04T04:55:26;4.47;;;3.38;;
69532;SDS011;56729;52.036;5.332;2022-11-04T04:56:28;5.25;;;3.47;;
69532;SDS011;56729;52.036;5.332;2022-11-04T04:57:29;5.53;;;3.08;;
69532;SDS011;56729;52.036;5.332;2022-11-04T04:58:31;7.57;;;3.88;;
69532;SDS011;56729;52.036;5.332;2022-11-04T04:59:33;6.00;;;2.90;;
69532;SDS011;56729;52.036;5.332;2022-11-04T05:00:35;4.00;;;2.45;;
69532;SDS011;56729;52.036;5.332;2022-11-04T05:01:37;5.30;;;3.20;;
69532;SDS011;56729;52.036;5.332;2022-11-04T05:02:39;7.53;;;2.42;;
69532;SDS011;56729;52.036;5.332;2022-11-04T05:03:41;4.70;;;2.92;;
69532;SDS011;56729;52.036;5.332;2022-11-04T05:04:45;7.93;;;3.42;;
69532;SDS011;56729;52.036;5.332;2022-11-04T05:05:47;3.75;;;2.83;;
69532;SDS011;56729;52.036;5.332;2022-11-04T05:06:52;3.78;;;2.67;;
69532;SDS011;56729;52.036;5.332;2022-11-04T05:07:54;4.87;;;2.37;;
69532;SDS011;56729;52.036;5.332;2022-11-04T05:08:56;5.43;;;3.53;;
69532;SDS011;56729;52.036;5.332;2022-11-04T05:09:58;3.70;;;1.85;;
69532;SDS011;56729;52.036;5.332;2022-11-04T05:11:00;5.05;;;2.83;;
69532;SDS011;56729;52.036;5.332;2022-11-04T05:12:02;16.35;;;3.55;;
69532;SDS011;56729;52.036;5.332;2022-11-04T05:13:04;3.78;;;2.10;;
69532;SDS011;56729;52.036;5.332;2022-11-04T05:14:24;7.03;;;2.58;;
69532;SDS011;56729;52.036;5.332;2022-11-04T05:15:26;3.60;;;2.55;;
69532;SDS011;56729;52.036;5.332;2022-11-04T05:16:29;5.05;;;3.13;;
69532;SDS011;56729;52.036;5.332;2022-11-04T05:17:31;4.88;;;3.25;;
69532;SDS011;56729;52.036;5.332;2022-11-04T05:18:33;4.47;;;3.25;;
69532;SDS011;56729;52.036;5.332;2022-11-04T05:19:35;6.25;;;3.67;;
69532;SDS011;56729;52.036;5.332;2022-11-04T05:20:37;3.72;;;2.15;;
69532;SDS011;56729;52.036;5.332;2022-11-04T05:21:40;4.35;;;2.65;;
69532;SDS011;56729;52.036;5.332;2022-11-04T05:22:42;6.68;;;3.00;;
69532;SDS011;56729;52.036;5.332;2022-11-04T05:23:43;7.03;;;3.27;;
69532;SDS011;56729;52.036;5.332;2022-11-04T05:24:45;4.38;;;2.58;;
69532;SDS011;56729;52.036;5.332;2022-11-04T05:25:47;9.35;;;3.88;;
69532;SDS011;56729;52.036;5.332;2022-11-04T05:26:49;6.50;;;3.83;;
69532;SDS011;56729;52.036;5.332;2022-11-04T05:27:51;4.93;;;2.30;;
69532;SDS011;56729;52.036;5.332;2022-11-04T05:28:53;7.97;;;3.03;;
69532;SDS011;56729;52.036;5.332;2022-11-04T05:29:54;4.93;;;2.20;;
69532;SDS011;56729;52.036;5.332;2022-11-04T05:30:56;5.43;;;3.28;;
69532;SDS011;56729;52.036;5.332;2022-11-04T05:31:58;6.78;;;3.55;;
69532;SDS011;56729;52.036;5.332;2022-11-04T05:33:00;6.05;;;4.22;;
69532;SDS011;56729;52.036;5.332;2022-11-04T05:34:05;8.57;;;3.33;;
69532;SDS011;56729;52.036;5.332;2022-11-04T05:35:07;4.82;;;2.55;;
69532;SDS011;56729;52.036;5.332;2022-11-04T05:36:12;6.28;;;2.33;;
69532;SDS011;56729;52.036;5.332;2022-11-04T05:37:16;5.07;;;2.30;;
69532;SDS011;56729;52.036;5.332;2022-11-04T05:38:17;3.90;;;2.50;;
69532;SDS011;56729;52.036;5.332;2022-11-04T05:39:19;6.97;;;2.90;;
69532;SDS011;56729;52.036;5.332;2022-11-04T05:40:21;5.05;;;2.80;;
69532;SDS011;56729;52.036;5.332;2022-11-04T05:41:24;3.95;;;3.10;;
69532;SDS011;56729;52.036;5.332;2022-11-04T05:42:26;5.90;;;3.13;;
69532;SDS011;56729;52.036;5.332;2022-11-04T05:43:28;7.60;;;2.57;;
69532;SDS011;56729;52.036;5.332;2022-11-04T05:44:30;6.82;;;3.20;;
69532;SDS011;56729;52.036;5.332;2022-11-04T05:45:31;4.07;;;2.70;;
69532;SDS011;56729;52.036;5.332;2022-11-04T05:46:33;5.10;;;2.95;;
69532;SDS011;56729;52.036;5.332;2022-11-04T05:47:35;5.47;;;3.45;;
69532;SDS011;56729;52.036;5.332;2022-11-04T05:48:37;8.10;;;3.28;;
69532;SDS011;56729;52.036;5.332;2022-11-04T05:49:41;3.90;;;2.10;;
69532;SDS011;56729;52.036;5.332;2022-11-04T05:50:42;6.30;;;2.77;;
69532;SDS011;56729;52.036;5.332;2022-11-04T05:51:44;5.75;;;2.28;;
69532;SDS011;56729;52.036;5.332;2022-11-04T05:52:47;3.47;;;2.40;;
69532;SDS011;56729;52.036;5.332;2022-11-04T05:53:48;6.10;;;3.63;;
69532;SDS011;56729;52.036;5.332;2022-11-04T05:54:50;5.30;;;2.70;;
69532;SDS011;56729;52.036;5.332;2022-11-04T05:55:52;5.45;;;1.95;;
69532;SDS011;56729;52.036;5.332;2022-11-04T05:56:54;8.70;;;3.88;;
69532;SDS011;56729;52.036;5.332;2022-11-04T05:57:56;4.28;;;2.22;;
69532;SDS011;56729;52.036;5.332;2022-11-04T05:58:59;4.07;;;2.35;;
69532;SDS011;56729;52.036;5.332;2022-11-04T06:00:01;4.90;;;3.45;;
69532;SDS011;56729;52.036;5.332;2022-11-04T06:01:11;5.25;;;3.05;;
69532;SDS011;56729;52.036;5.332;2022-11-04T06:02:34;3.75;;;2.35;;
69532;SDS011;56729;52.036;5.332;2022-11-04T06:03:36;4.43;;;2.45;;
69532;SDS011;56729;52.036;5.332;2022-11-04T06:04:38;6.03;;;2.97;;
69532;SDS011;56729;52.036;5.332;2022-11-04T06:05:39;2.90;;;1.77;;
69532;SDS011;56729;52.036;5.332;2022-11-04T06:06:41;6.00;;;3.13;;
69532;SDS011;56729;52.036;5.332;2022-11-04T06:07:43;5.65;;;3.08;;
69532;SDS011;56729;52.036;5.332;2022-11-04T06:08:45;5.30;;;3.30;;
69532;SDS011;56729;52.036;5.332;2022-11-04T06:09:47;7.72;;;3.05;;
69532;SDS011;56729;52.036;5.332;2022-11-04T06:10:49;3.17;;;2.25;;
69532;SDS011;56729;52.036;5.332;2022-11-04T06:11:51;4.32;;;2.58;;
69532;SDS011;56729;52.036;5.332;2022-11-04T06:12:53;23.63;;;3.47;;
69532;SDS011;56729;52.036;5.332;2022-11-04T06:13:55;9.40;;;3.38;;
69532;SDS011;56729;52.036;5.332;2022-11-04T06:14:57;4.30;;;2.53;;
69532;SDS011;56729;52.036;5.332;2022-11-04T06:15:59;3.65;;;2.22;;
69532;SDS011;56729;52.036;5.332;2022-11-04T06:17:01;5.18;;;3.08;;
69532;SDS011;56729;52.036;5.332;2022-11-04T06:18:04;4.75;;;1.85;;
69532;SDS011;56729;52.036;5.332;2022-11-04T06:19:06;4.75;;;2.08;;
69532;SDS011;56729;52.036;5.332;2022-11-04T06:20:13;4.45;;;3.50;;
69532;SDS011;56729;52.036;5.332;2022-11-04T06:22:18;6.03;;;2.70;;
69532;SDS011;56729;52.036;5.332;2022-11-04T06:23:20;5.85;;;2.85;;
69532;SDS011;56729;52.036;5.332;2022-11-04T06:24:22;5.35;;;2.33;;
69532;SDS011;56729;52.036;5.332;2022-11-04T06:25:24;5.17;;;2.23;;
69532;SDS011;56729;52.036;5.332;2022-11-04T06:26:26;8.25;;;3.65;;
69532;SDS011;56729;52.036;5.332;2022-11-04T06:27:29;6.35;;;3.00;;
69532;SDS011;56729;52.036;5.332;2022-11-04T06:28:31;3.65;;;2.55;;
69532;SDS011;56729;52.036;5.332;2022-11-04T06:29:33;3.85;;;2.03;;
69532;SDS011;56729;52.036;5.332;2022-11-04T06:30:40;3.20;;;1.77;;
69532;SDS011;56729;52.036;5.332;2022-11-04T06:31:42;4.80;;;2.72;;
69532;SDS011;56729;52.036;5.332;2022-11-04T06:32:43;4.10;;;2.70;;
69532;SDS011;56729;52.036;5.332;2022-11-04T06:33:45;6.90;;;2.40;;
69532;SDS011;56729;52.036;5.332;2022-11-04T06:34:47;5.90;;;2.35;;
69532;SDS011;56729;52.036;5.332;2022-11-04T06:35:49;4.32;;;1.90;;
69532;SDS011;56729;52.036;5.332;2022-11-04T06:36:51;41.78;;;3.17;;
69532;SDS011;56729;52.036;5.332;2022-11-04T06:37:53;4.32;;;1.77;;
69532;SDS011;56729;52.036;5.332;2022-11-04T06:38:55;4.72;;;1.80;;
69532;SDS011;56729;52.036;5.332;2022-11-04T06:40:04;4.25;;;2.30;;
69532;SDS011;56729;52.036;5.332;2022-11-04T06:41:09;3.60;;;2.53;;
69532;SDS011;56729;52.036;5.332;2022-11-04T06:42:14;5.28;;;1.88;;
69532;SDS011;56729;52.036;5.332;2022-11-04T06:43:16;4.45;;;2.20;;
69532;SDS011;56729;52.036;5.332;2022-11-04T06:44:17;7.43;;;2.60;;
69532;SDS011;56729;52.036;5.332;2022-11-04T06:45:19;6.30;;;2.28;;
69532;SDS011;56729;52.036;5.332;2022-11-04T06:46:42;4.88;;;1.98;;
69532;SDS011;56729;52.036;5.332;2022-11-04T06:47:44;3.87;;;2.47;;
69532;SDS011;56729;52.036;5.332;2022-11-04T06:48:45;3.55;;;1.77;;
69532;SDS011;56729;52.036;5.332;2022-11-04T06:49:47;4.72;;;2.05;;
69532;SDS011;56729;52.036;5.332;2022-11-04T06:50:49;4.10;;;2.25;;
69532;SDS011;56729;52.036;5.332;2022-11-04T06:51:51;5.40;;;2.35;;
69532;SDS011;56729;52.036;5.332;2022-11-04T06:52:53;4.18;;;2.45;;
69532;SDS011;56729;52.036;5.332;2022-11-04T06:53:55;3.85;;;2.50;;
69532;SDS011;56729;52.036;5.332;2022-11-04T06:54:57;3.87;;;1.90;;
69532;SDS011;56729;52.036;5.332;2022-11-04T06:56:02;4.85;;;1.70;;
69532;SDS011;56729;52.036;5.332;2022-11-04T06:57:04;3.75;;;1.77;;
69532;SDS011;56729;52.036;5.332;2022-11-04T06:58:06;4.38;;;2.78;;
69532;SDS011;56729;52.036;5.332;2022-11-04T06:59:14;5.43;;;2.10;;
69532;SDS011;56729;52.036;5.332;2022-11-04T07:00:17;3.92;;;1.75;;
69532;SDS011;56729;52.036;5.332;2022-11-04T07:01:19;3.83;;;2.10;;
69532;SDS011;56729;52.036;5.332;2022-11-04T07:02:23;3.00;;;2.17;;
69532;SDS011;56729;52.036;5.332;2022-11-04T07:03:25;5.33;;;2.40;;
69532;SDS011;56729;52.036;5.332;2022-11-04T07:04:27;2.65;;;1.65;;
69532;SDS011;56729;52.036;5.332;2022-11-04T07:05:31;5.00;;;2.83;;
69532;SDS011;56729;52.036;5.332;2022-11-04T07:06:33;4.05;;;2.00;;